Streeter, North Dakota
Current Conditions -  °F | °C
As of 7:30 PM on Thursday 27 Nov 2014 (Local Time) from KJMS Reporting Station
Light Snow Light Snow  
Wind Chill: -11°   Ceiling: 1200
Heat Index:   Visibility: 0.75mi
Dew Point:   Wind: 14mph
Humidity: 83%   Direction: 120°ESE
Pressure: 30.06"   Gusts: NA
Location:  46.66°N, 99.35°W
Report Text: KJMS 280130Z AUTO 12012KT 3/4SM -SN BR VV012 M14/M17 A3006 RMK AO2 P0000 T11441167
Loading
Personal Weather Stations






























Interactive Weather Map New forecast layout! Learn more

10-Day Weather Forecast

Advertisements
Track Severe Weather on mobile